createdAt,value
2023-01-10T00:02:05.699Z,0.60
2023-01-10T00:04:36.268Z,0.95
2023-01-10T00:07:18.759Z,2.50
2023-01-10T00:09:47.952Z,0.82
2023-01-10T00:12:34.283Z,2.47
2023-01-10T00:15:03.452Z,0.77
2023-01-10T00:17:33.340Z,2.97
2023-01-10T00:20:04.133Z,1.00
2023-01-10T00:22:33.345Z,1.05
2023-01-10T00:25:02.561Z,1.05
2023-01-10T00:27:32.654Z,1.40
2023-01-10T00:30:07.577Z,0.50
2023-01-10T00:32:36.633Z,1.15
2023-01-10T00:35:09.603Z,1.02
2023-01-10T00:37:39.015Z,0.70
2023-01-10T00:40:10.541Z,2.85
2023-01-10T00:42:57.083Z,1.73
2023-01-10T00:45:29.282Z,1.95
2023-01-10T00:47:58.410Z,1.53
2023-01-10T00:50:29.230Z,0.90
2023-01-10T00:52:58.289Z,1.38
2023-01-10T00:55:27.430Z,0.85
2023-01-10T00:57:59.475Z,1.70
2023-01-10T01:00:28.542Z,0.60
2023-01-10T01:02:58.060Z,2.03
2023-01-10T01:05:28.795Z,1.60
2023-01-10T01:07:58.295Z,1.33
2023-01-10T01:10:30.203Z,0.40
2023-01-10T01:13:01.870Z,1.10
2023-01-10T01:15:31.064Z,1.83
2023-01-10T01:18:01.355Z,1.33
2023-01-10T01:20:32.273Z,1.17
2023-01-10T01:23:01.853Z,1.85
2023-01-10T01:25:30.859Z,0.82
2023-01-10T01:27:59.942Z,0.98
2023-01-10T01:30:28.941Z,0.73
2023-01-10T01:32:58.965Z,0.75
2023-01-10T01:35:28.222Z,2.72
2023-01-10T01:37:58.789Z,0.20
2023-01-10T01:40:27.951Z,1.17
2023-01-10T01:42:57.041Z,1.08
2023-01-10T01:45:40.808Z,1.23
2023-01-10T01:48:21.280Z,1.27
2023-01-10T01:50:55.098Z,0.63
2023-01-10T01:53:31.230Z,3.38
2023-01-10T01:56:04.821Z,1.27
2023-01-10T01:58:39.955Z,2.03
2023-01-10T02:01:09.353Z,1.42
2023-01-10T02:03:40.954Z,1.33
2023-01-10T02:06:10.703Z,0.90
2023-01-10T02:08:46.043Z,1.13
2023-01-10T02:11:15.230Z,1.00
2023-01-10T02:13:47.257Z,0.77
2023-01-10T02:16:17.342Z,0.80
2023-01-10T02:18:46.606Z,1.02
2023-01-10T02:21:56.929Z,0.60
2023-01-10T02:25:11.079Z,1.90
2023-01-10T02:27:56.848Z,1.23
2023-01-10T02:30:48.084Z,2.53
2023-01-10T02:33:27.661Z,1.10
2023-01-10T02:36:07.674Z,1.05
2023-01-10T02:38:51.545Z,1.13
2023-01-10T02:41:28.209Z,1.00
2023-01-10T02:44:04.415Z,1.20
2023-01-10T02:46:35.371Z,2.00
2023-01-10T02:49:05.897Z,1.42
2023-01-10T02:51:34.943Z,1.20
2023-01-10T02:54:08.969Z,0.28
2023-01-10T02:57:13.022Z,2.13
2023-01-10T03:00:14.399Z,1.67
2023-01-10T03:03:09.067Z,2.22
2023-01-10T03:05:57.495Z,1.40
2023-01-10T03:08:34.175Z,1.20
2023-01-10T03:11:05.306Z,0.47
2023-01-10T03:13:39.396Z,1.35
2023-01-10T03:16:12.152Z,1.65
2023-01-10T03:18:46.726Z,1.65
2023-01-10T03:21:20.652Z,1.65
2023-01-10T03:23:52.281Z,1.00
2023-01-10T03:26:28.175Z,0.73
2023-01-10T03:29:03.868Z,1.65
2023-01-10T03:31:39.543Z,1.23
2023-01-10T03:34:09.453Z,1.65
2023-01-10T03:36:50.032Z,1.42
2023-01-10T03:39:25.296Z,1.55
2023-01-10T03:42:03.987Z,2.05
2023-01-10T03:44:45.181Z,2.90
2023-01-10T03:47:21.013Z,1.98
2023-01-10T03:49:55.566Z,1.00
2023-01-10T03:52:27.742Z,0.40
2023-01-10T03:55:07.524Z,0.70
2023-01-10T03:57:37.263Z,0.60
2023-01-10T04:00:07.459Z,1.45
2023-01-10T04:02:37.203Z,0.68
2023-01-10T04:05:07.566Z,0.68
2023-01-10T04:07:38.379Z,0.93
2023-01-10T04:10:08.806Z,1.58
2023-01-10T04:12:37.943Z,1.85
2023-01-10T04:15:08.182Z,0.28
2023-01-10T04:17:37.377Z,0.28
2023-01-10T04:20:07.253Z,0.77
2023-01-10T04:22:37.941Z,1.17
2023-01-10T04:25:08.072Z,0.77
2023-01-10T04:27:37.394Z,1.85
2023-01-10T04:30:08.445Z,0.25
2023-01-10T04:32:37.621Z,1.42
2023-01-10T04:35:07.305Z,0.95
2023-01-10T04:37:38.587Z,1.92
2023-01-10T04:40:09.024Z,1.45
2023-01-10T04:42:38.392Z,2.72
2023-01-10T04:45:10.476Z,0.30
2023-01-10T04:47:39.707Z,0.70
2023-01-10T04:50:09.421Z,0.65
2023-01-10T04:52:41.382Z,2.05
2023-01-10T04:55:11.266Z,1.27
2023-01-10T04:57:41.113Z,0.63
2023-01-10T05:00:11.528Z,0.52
2023-01-10T05:02:44.457Z,0.90
2023-01-10T05:05:15.585Z,0.95
2023-01-10T05:07:47.575Z,1.65
2023-01-10T05:10:16.730Z,1.63
2023-01-10T05:12:47.491Z,0.88
2023-01-10T05:15:16.851Z,1.15
2023-01-10T05:17:46.432Z,0.70
2023-01-10T05:20:15.631Z,1.83
2023-01-10T05:22:46.949Z,1.23
2023-01-10T05:25:16.329Z,0.70
2023-01-10T05:27:45.569Z,1.42
2023-01-10T05:30:15.690Z,3.95
2023-01-10T05:32:44.794Z,4.55
2023-01-10T05:35:14.099Z,2.70
2023-01-10T05:37:43.156Z,3.42
2023-01-10T05:40:19.473Z,1.95
2023-01-10T05:42:48.482Z,2.65
2023-01-10T05:45:17.652Z,4.38
2023-01-10T05:47:46.755Z,3.65
2023-01-10T05:50:17.453Z,4.40
2023-01-10T05:52:47.994Z,1.65
2023-01-10T05:55:21.099Z,1.08
2023-01-10T05:57:50.187Z,1.55
2023-01-10T06:00:20.650Z,0.70
2023-01-10T06:02:49.962Z,1.08
2023-01-10T06:05:19.153Z,0.90
2023-01-10T06:07:48.125Z,2.53
2023-01-10T06:10:38.097Z,1.75
2023-01-10T06:13:07.164Z,1.23
2023-01-10T06:15:37.792Z,2.28
2023-01-10T06:18:07.040Z,3.42
2023-01-10T06:20:36.425Z,2.78
2023-01-10T06:23:05.656Z,2.45
2023-01-10T06:25:40.647Z,1.15
2023-01-10T06:28:10.581Z,2.15
2023-01-10T06:30:41.212Z,1.45
2023-01-10T06:33:11.140Z,1.10
2023-01-10T06:35:41.309Z,1.88
2023-01-10T06:38:10.648Z,2.10
2023-01-10T06:40:41.366Z,2.10
2023-01-10T06:43:10.464Z,0.85
2023-01-10T06:45:39.703Z,0.63
2023-01-10T06:48:09.067Z,2.20
2023-01-10T06:50:40.985Z,1.92
2023-01-10T06:53:11.014Z,1.55
2023-01-10T06:55:41.645Z,0.75
2023-01-10T06:58:11.275Z,1.58
2023-01-10T07:00:40.659Z,3.50
2023-01-10T07:03:11.458Z,1.83
2023-01-10T07:05:40.666Z,3.20
2023-01-10T07:08:10.124Z,1.52
2023-01-10T07:10:43.460Z,2.33
2023-01-10T07:13:13.454Z,3.90
2023-01-10T07:15:42.793Z,1.85
2023-01-10T07:18:20.878Z,3.20
2023-01-10T07:20:50.625Z,2.67
2023-01-10T07:23:19.931Z,3.28
2023-01-10T07:25:51.372Z,3.58
2023-01-10T07:28:20.780Z,1.17
2023-01-10T07:30:50.598Z,2.70
2023-01-10T07:33:20.087Z,2.45
2023-01-10T07:35:49.355Z,1.17
2023-01-10T07:38:18.453Z,1.48
2023-01-10T07:40:47.825Z,1.23
2023-01-10T07:43:18.465Z,1.92
2023-01-10T07:45:49.109Z,3.00
2023-01-10T07:48:19.264Z,1.60
2023-01-10T07:50:49.080Z,2.35
2023-01-10T07:53:18.452Z,3.22
2023-01-10T07:55:47.552Z,3.03
2023-01-10T07:58:18.856Z,3.28
2023-01-10T08:00:50.721Z,3.25
2023-01-10T08:03:20.323Z,3.10
2023-01-10T08:05:49.590Z,2.85
2023-01-10T08:08:24.905Z,3.47
2023-01-10T08:10:54.289Z,2.35
2023-01-10T08:13:25.499Z,3.58
2023-01-10T08:15:54.817Z,4.53
2023-01-10T08:18:25.631Z,3.90
2023-01-10T08:20:56.123Z,3.95
2023-01-10T08:23:25.866Z,4.95
2023-01-10T08:25:55.542Z,3.72
2023-01-10T08:28:26.118Z,3.70
2023-01-10T08:30:56.302Z,3.92
2023-01-10T08:33:27.635Z,4.57
2023-01-10T08:35:56.773Z,3.80
2023-01-10T08:38:26.091Z,5.28
2023-01-10T08:40:58.204Z,3.83
2023-01-10T08:43:28.689Z,2.70
2023-01-10T08:45:58.078Z,1.92
2023-01-10T08:48:27.269Z,3.72
2023-01-10T08:50:56.608Z,5.50
2023-01-10T08:53:31.396Z,3.97
2023-01-10T08:56:03.198Z,5.18
2023-01-10T08:58:34.921Z,4.30
2023-01-10T09:01:06.265Z,3.53
2023-01-10T09:03:35.875Z,3.90
2023-01-10T09:06:05.720Z,5.18
2023-01-10T09:08:35.035Z,5.65
2023-01-10T09:11:06.602Z,5.15
2023-01-10T09:13:37.278Z,4.05
2023-01-10T09:16:06.881Z,4.07
2023-01-10T09:18:36.542Z,3.78
2023-01-10T09:21:05.975Z,3.45
2023-01-10T09:23:37.021Z,3.05
2023-01-10T09:26:06.344Z,2.05
2023-01-10T09:28:36.958Z,3.67
2023-01-10T09:31:07.490Z,2.53
2023-01-10T09:33:46.131Z,2.05
2023-01-10T09:36:16.908Z,2.70
2023-01-10T09:38:46.607Z,3.75
2023-01-10T09:41:38.451Z,3.85
2023-01-10T09:44:20.734Z,2.30
2023-01-10T09:47:02.212Z,2.50
2023-01-10T09:49:45.828Z,1.50
2023-01-10T09:52:23.286Z,3.72
2023-01-10T09:54:56.413Z,3.60
2023-01-10T09:59:58.638Z,2.67
2023-01-10T10:02:32.248Z,1.55
2023-01-10T10:05:10.076Z,2.38
2023-01-10T10:07:39.458Z,2.58
2023-01-10T10:10:14.084Z,2.55
2023-01-10T10:12:51.273Z,1.23
2023-01-10T10:15:31.083Z,2.38
2023-01-10T10:18:16.938Z,2.20
2023-01-10T10:20:59.305Z,4.25
2023-01-10T10:23:41.258Z,2.67
2023-01-10T10:26:19.456Z,2.90
2023-01-10T10:29:08.078Z,3.50
2023-01-10T10:31:57.821Z,2.50
2023-01-10T10:34:36.860Z,3.67
2023-01-10T10:37:13.793Z,3.65
2023-01-10T10:39:49.048Z,3.17
2023-01-10T10:42:21.102Z,4.30
2023-01-10T10:44:56.072Z,4.35
2023-01-10T10:47:31.968Z,7.13
2023-01-10T10:50:08.609Z,3.83
2023-01-10T10:52:38.930Z,4.55
2023-01-10T10:55:14.000Z,5.32
2023-01-10T10:57:59.023Z,4.50
2023-01-10T11:00:30.333Z,5.88
2023-01-10T11:03:08.741Z,4.50
2023-01-10T11:05:40.629Z,2.92
2023-01-10T11:08:13.129Z,2.90
2023-01-10T11:10:44.220Z,2.63
2023-01-10T11:13:22.578Z,3.40
2023-01-10T11:15:54.081Z,1.90
2023-01-10T11:18:27.195Z,3.00
2023-01-10T11:21:00.410Z,2.70
2023-01-10T11:26:28.186Z,2.17
2023-01-10T11:29:08.655Z,2.10
2023-01-10T11:31:39.100Z,2.63
2023-01-10T11:34:22.330Z,3.65
2023-01-10T11:36:56.498Z,6.28
2023-01-10T11:39:26.127Z,6.30
2023-01-10T11:41:57.196Z,4.60
2023-01-10T11:44:28.183Z,3.33
2023-01-10T11:46:59.364Z,2.30
2023-01-10T11:49:35.760Z,1.98
2023-01-10T11:52:08.329Z,1.70
2023-01-10T11:54:37.565Z,1.35
2023-01-10T11:57:11.573Z,0.77
2023-01-10T11:59:40.781Z,1.25
2023-01-10T12:02:22.166Z,3.60
2023-01-10T12:05:02.286Z,3.65
2023-01-10T12:07:32.421Z,1.85
2023-01-10T12:10:03.993Z,2.03
2023-01-10T12:12:35.081Z,4.10
2023-01-10T12:15:23.891Z,1.85
2023-01-10T12:17:55.502Z,1.30
2023-01-10T12:20:29.632Z,1.27
2023-01-10T12:23:02.685Z,1.30
2023-01-10T12:25:36.221Z,1.08
2023-01-10T12:28:06.530Z,0.60
2023-01-10T12:30:39.210Z,0.80
2023-01-10T12:33:15.288Z,1.23
2023-01-10T12:35:51.904Z,2.65
2023-01-10T12:38:58.288Z,4.53
2023-01-10T12:41:52.183Z,3.30
2023-01-10T12:44:25.785Z,5.10
2023-01-10T12:47:12.777Z,4.00
2023-01-10T12:49:50.281Z,1.25
2023-01-10T12:52:31.100Z,0.98
2023-01-10T12:55:01.037Z,0.75
2023-01-10T12:57:33.937Z,0.50
2023-01-10T13:00:05.738Z,0.30
2023-01-10T13:02:44.170Z,0.88
2023-01-10T13:05:20.724Z,0.70
2023-01-10T13:07:53.205Z,2.97
2023-01-10T13:10:24.593Z,1.88
2023-01-10T13:12:59.936Z,1.80
2023-01-10T13:15:32.084Z,2.42
2023-01-10T13:18:04.149Z,3.20
2023-01-10T13:20:51.358Z,3.40
2023-01-10T13:23:33.619Z,2.25
2023-01-10T13:26:09.238Z,1.27
2023-01-10T13:28:41.605Z,2.00
2023-01-10T13:31:28.119Z,1.30
2023-01-10T13:34:00.656Z,1.25
2023-01-10T13:36:37.182Z,1.25
2023-01-10T13:39:20.976Z,1.95
2023-01-10T13:42:45.714Z,1.00
2023-01-10T13:45:24.087Z,0.60
2023-01-10T13:48:07.254Z,1.25
2023-01-10T13:50:58.624Z,3.33
2023-01-10T13:53:47.137Z,2.58
2023-01-10T13:56:36.698Z,2.40
2023-01-10T13:59:29.430Z,2.60
2023-01-10T14:02:18.822Z,0.90
2023-01-10T14:04:53.231Z,1.10
2023-01-10T14:07:28.859Z,1.55
2023-01-10T14:10:05.013Z,1.83
2023-01-10T14:12:40.538Z,2.42
2023-01-10T14:15:24.921Z,3.10
2023-01-10T14:18:05.467Z,1.73
2023-01-10T14:20:43.971Z,2.78
2023-01-10T14:23:23.384Z,3.20
2023-01-10T14:25:56.569Z,7.80
2023-01-10T14:28:29.402Z,4.20
2023-01-10T14:31:04.713Z,1.73
2023-01-10T14:33:35.836Z,3.15
2023-01-10T14:36:15.697Z,1.52
2023-01-10T14:38:46.941Z,1.38
2023-01-10T14:41:23.306Z,1.17
2023-01-10T14:43:59.279Z,2.05
2023-01-10T14:46:36.221Z,1.67
2023-01-10T14:49:23.305Z,1.80
2023-01-10T14:51:53.278Z,2.05
2023-01-10T14:54:23.759Z,3.28
2023-01-10T14:56:55.379Z,1.35
2023-01-10T14:59:27.565Z,0.30
2023-01-10T15:01:58.897Z,2.07
2023-01-10T15:04:33.174Z,0.55
2023-01-10T15:07:04.505Z,0.80
2023-01-10T15:09:34.798Z,0.80
2023-01-10T15:12:08.695Z,0.30
2023-01-10T15:14:42.979Z,1.73
2023-01-10T15:17:20.525Z,0.90
2023-01-10T15:19:54.095Z,0.68
2023-01-10T15:22:30.454Z,0.60
2023-01-10T15:25:01.887Z,1.30
2023-01-10T15:27:33.744Z,0.73
2023-01-10T15:30:10.609Z,0.50
2023-01-10T15:32:41.652Z,0.30
2023-01-10T15:35:17.908Z,0.82
2023-01-10T15:37:54.621Z,0.73
2023-01-10T15:40:25.934Z,1.05
2023-01-10T15:43:12.961Z,0.47
2023-01-10T15:45:45.142Z,0.43
2023-01-10T15:48:33.923Z,0.67
2023-01-10T15:51:06.913Z,0.30
2023-01-10T15:53:58.259Z,0.50
2023-01-10T15:56:30.712Z,0.20
2023-01-10T15:59:01.249Z,0.63
2023-01-10T16:01:33.897Z,0.10
2023-01-10T16:04:05.428Z,0.20
2023-01-10T16:06:38.423Z,2.13
2023-01-10T16:09:10.421Z,0.93
2023-01-10T16:12:00.048Z,0.45
2023-01-10T16:14:29.308Z,0.30
2023-01-10T16:17:00.105Z,0.20
2023-01-10T16:19:29.336Z,1.45
2023-01-10T16:22:00.802Z,0.20
2023-01-10T16:24:32.654Z,0.35
2023-01-10T16:27:06.213Z,0.80
2023-01-10T16:29:35.769Z,0.10
2023-01-10T16:32:14.365Z,0.30
2023-01-10T16:34:44.303Z,0.20
2023-01-10T16:37:13.347Z,0.40
2023-01-10T16:39:42.728Z,0.68
2023-01-10T16:42:29.106Z,5.28
2023-01-10T16:44:58.541Z,0.30
2023-01-10T16:47:29.263Z,0.50
2023-01-10T16:49:58.445Z,0.40
2023-01-10T16:52:28.303Z,0.43
2023-01-10T16:54:57.507Z,0.60
2023-01-10T16:57:26.931Z,0.38
2023-01-10T16:59:56.728Z,0.50
2023-01-10T17:02:25.973Z,1.65
2023-01-10T17:04:58.897Z,0.28
2023-01-10T17:07:28.014Z,0.35
2023-01-10T17:09:58.665Z,0.55
2023-01-10T17:12:33.209Z,0.90
2023-01-10T17:15:04.321Z,0.20
2023-01-10T17:17:33.561Z,0.35
2023-01-10T17:20:04.418Z,0.75
2023-01-10T17:22:34.000Z,0.77
2023-01-10T17:25:03.867Z,0.60
2023-01-10T17:27:33.107Z,0.75
2023-01-10T17:30:02.502Z,0.30
2023-01-10T17:32:32.903Z,0.60
2023-01-10T17:35:03.767Z,1.10
2023-01-10T17:37:33.263Z,0.40
2023-01-10T17:40:02.664Z,0.52
2023-01-10T17:42:32.692Z,0.82
2023-01-10T17:45:02.261Z,0.80
2023-01-10T17:47:33.434Z,0.50
2023-01-10T17:50:04.362Z,1.17
2023-01-10T17:52:33.667Z,1.83
2023-01-10T17:55:03.742Z,1.27
2023-01-10T17:57:33.822Z,1.05
2023-01-10T18:00:06.966Z,1.38
2023-01-10T18:02:36.346Z,0.50
2023-01-10T18:05:08.482Z,3.00
2023-01-10T18:07:37.787Z,3.13
2023-01-10T18:10:09.169Z,1.25
2023-01-10T18:12:38.947Z,1.23
2023-01-10T18:15:29.403Z,1.55
2023-01-10T18:17:59.215Z,1.70
2023-01-10T18:20:29.855Z,1.75
2023-01-10T18:23:16.552Z,1.58
2023-01-10T18:25:52.549Z,1.52
2023-01-10T18:28:39.057Z,1.80
2023-01-10T18:31:11.541Z,0.82
2023-01-10T18:33:40.974Z,0.43
2023-01-10T18:36:16.272Z,2.17
2023-01-10T18:38:46.341Z,1.05
2023-01-10T18:41:16.716Z,0.47
2023-01-10T18:43:46.492Z,0.30
2023-01-10T18:46:21.930Z,0.77
2023-01-10T18:48:54.322Z,0.70
2023-01-10T18:51:26.204Z,0.90
2023-01-10T18:53:55.595Z,1.92
2023-01-10T18:56:25.725Z,0.98
2023-01-10T18:58:54.872Z,1.17
2023-01-10T19:01:24.097Z,0.80
2023-01-10T19:03:53.642Z,0.80
2023-01-10T19:06:25.150Z,0.25
2023-01-10T19:08:55.905Z,1.35
2023-01-10T19:11:25.475Z,1.75
2023-01-10T19:13:55.463Z,0.65
2023-01-10T19:16:26.410Z,4.97
2023-01-10T19:18:57.830Z,3.47
2023-01-10T19:21:30.697Z,0.80
2023-01-10T19:24:03.961Z,1.02
2023-01-10T19:26:34.317Z,1.05
2023-01-10T19:29:04.910Z,1.25
2023-01-10T19:31:34.529Z,0.38
2023-01-10T19:34:03.929Z,0.73
2023-01-10T19:36:35.274Z,0.55
2023-01-10T19:39:05.594Z,1.02
2023-01-10T19:41:35.510Z,0.65
2023-01-10T19:44:07.239Z,0.50
2023-01-10T20:06:40.645Z,0.47
2023-01-10T20:09:13.723Z,1.95
2023-01-10T20:11:46.350Z,0.32
2023-01-10T20:14:18.419Z,1.17
2023-01-10T20:16:48.150Z,0.10
2023-01-10T20:19:17.658Z,0.10
2023-01-10T20:21:48.269Z,0.50
2023-01-10T20:24:18.965Z,0.88
2023-01-10T20:26:49.245Z,0.45
2023-01-10T20:29:19.312Z,0.80
2023-01-10T20:31:53.010Z,0.20
2023-01-10T20:34:23.222Z,1.05
2023-01-10T20:36:54.660Z,0.15
2023-01-10T20:39:24.446Z,0.20
2023-01-10T20:41:53.708Z,0.57
2023-01-10T20:44:23.456Z,0.10
2023-01-10T20:46:52.796Z,0.20
2023-01-10T20:49:22.222Z,0.30
2023-01-10T20:51:53.979Z,0.80
2023-01-10T20:54:23.087Z,0.40
2023-01-10T20:56:52.111Z,0.93
2023-01-10T20:59:21.258Z,0.35
2023-01-10T21:01:50.412Z,0.32
2023-01-10T21:04:19.493Z,1.35
2023-01-10T21:06:48.716Z,0.20
2023-01-10T21:09:19.737Z,0.20
2023-01-10T21:12:02.110Z,0.38
2023-01-10T21:14:37.703Z,0.30
2023-01-10T21:17:06.750Z,1.00
2023-01-10T21:19:35.852Z,0.60
2023-01-10T21:22:04.911Z,0.10
2023-01-10T21:24:35.350Z,0.50
2023-01-10T21:27:04.421Z,1.50
2023-01-10T21:29:33.454Z,1.42
2023-01-10T21:32:02.824Z,0.52
2023-01-10T21:34:31.999Z,0.52
2023-01-10T21:37:01.041Z,0.85
2023-01-10T21:39:30.118Z,0.40
2023-01-10T21:42:18.243Z,1.08
2023-01-10T21:44:47.292Z,0.38
2023-01-10T21:47:16.273Z,1.02
2023-01-10T21:49:45.207Z,0.52
2023-01-10T21:52:14.205Z,0.40
2023-01-10T21:54:43.313Z,0.40
2023-01-10T21:57:14.113Z,0.75
2023-01-10T21:59:43.100Z,0.32
2023-01-10T22:02:15.405Z,2.15
2023-01-10T22:04:47.013Z,0.57
2023-01-10T22:07:17.376Z,0.20
2023-01-10T22:09:46.403Z,0.55
2023-01-10T22:12:16.831Z,0.32
2023-01-10T22:14:46.506Z,0.47
2023-01-10T22:17:15.667Z,0.40
2023-01-10T22:19:44.808Z,0.10
2023-01-10T22:22:14.134Z,2.53
2023-01-10T22:24:46.866Z,1.23
2023-01-10T22:27:17.306Z,1.27
2023-01-10T22:29:46.295Z,0.52
2023-01-10T22:32:15.332Z,0.10
2023-01-10T22:34:44.335Z,0.32
2023-01-10T22:37:13.257Z,0.50
2023-01-10T22:39:42.259Z,0.65
2023-01-10T22:42:11.253Z,0.10
2023-01-10T22:44:41.696Z,0.20
2023-01-10T22:47:10.909Z,1.40
2023-01-10T22:49:40.057Z,0.30
2023-01-10T22:52:11.454Z,0.45
2023-01-10T22:54:40.437Z,0.75
2023-01-10T22:57:09.652Z,0.32
2023-01-10T23:02:30.703Z,0.95
2023-01-10T23:04:59.937Z,0.80
2023-01-10T23:07:29.471Z,1.98
2023-01-10T23:09:58.369Z,1.10
2023-01-10T23:12:27.239Z,0.55
2023-01-10T23:14:56.262Z,0.63
2023-01-10T23:17:26.583Z,0.50
2023-01-10T23:19:55.493Z,0.80
2023-01-10T23:22:25.789Z,0.43
2023-01-10T23:24:54.894Z,0.68
2023-01-10T23:27:24.247Z,0.47
2023-01-10T23:29:53.248Z,0.40
2023-01-10T23:32:22.133Z,1.33
2023-01-10T23:34:52.502Z,0.57
2023-01-10T23:37:21.420Z,0.40
2023-01-10T23:39:50.360Z,0.52
2023-01-10T23:42:19.314Z,0.20
2023-01-10T23:44:48.338Z,0.90
2023-01-10T23:47:17.302Z,0.20
2023-01-10T23:49:46.159Z,0.52
2023-01-10T23:52:16.430Z,0.82
2023-01-10T23:54:45.286Z,0.40
2023-01-10T23:57:14.391Z,0.30
2023-01-10T23:59:43.449Z,0.47
